sensor_id;sensor_type;location;lat;lon;timestamp;temperature;humidity
216;HTU21D;70668;48.81286795;9.14184224;2024-01-15T00:00:22;-1.46;87.43
216;HTU21D;70668;48.81286795;9.14184224;2024-01-15T00:02:50;-1.58;87.89
216;HTU21D;70668;48.81286795;9.14184224;2024-01-15T00:05:19;-1.41;87.51
216;HTU21D;70668;48.81286795;9.14184224;2024-01-15T00:07:47;-1.54;87.96
216;HTU21D;70668;48.81286795;9.14184224;2024-01-15T00:10:16;-1.42;87.72
216;HTU21D;70668;48.81286795;9.14184224;2024-01-15T00:12:44;-1.43;87.54
216;HTU21D;70668;48.81286795;9.14184224;2024-01-15T00:15:15;-1.43;87.80
216;HTU21D;70668;48.81286795;9.14184224;2024-01-15T00:17:44;-1.28;87.34
216;HTU21D;70668;48.81286795;9.14184224;2024-01-15T00:20:13;-1.50;87.95
216;HTU21D;70668;48.81286795;9.14184224;2024-01-15T00:22:41;-1.23;87.17
216;HTU21D;70668;48.81286795;9.14184224;2024-01-15T00:25:09;-1.45;87.87
216;HTU21D;70668;48.81286795;9.14184224;2024-01-15T00:27:38;-1.46;88.02
216;HTU21D;70668;48.81286795;9.14184224;2024-01-15T00:30:07;-1.30;87.54
216;HTU21D;70668;48.81286795;9.14184224;2024-01-15T00:32:38;-1.43;88.02
216;HTU21D;70668;48.81286795;9.14184224;2024-01-15T00:35:07;-1.42;88.02
216;HTU21D;70668;48.81286795;9.14184224;2024-01-15T00:37:36;-1.46;88.13
216;HTU21D;70668;48.81286795;9.14184224;2024-01-15T00:40:06;-1.45;87.96
216;HTU21D;70668;48.81286795;9.14184224;2024-01-15T00:42:35;-1.45;88.09
216;HTU21D;70668;48.81286795;9.14184224;2024-01-15T00:45:04;-1.61;88.44
216;HTU21D;70668;48.81286795;9.14184224;2024-01-15T00:47:34;-1.49;88.10
216;HTU21D;70668;48.81286795;9.14184224;2024-01-15T00:50:06;-1.41;88.03
216;HTU21D;70668;48.81286795;9.14184224;2024-01-15T00:52:34;-1.53;88.09
216;HTU21D;70668;48.81286795;9.14184224;2024-01-15T00:55:03;-1.59;88.89
216;HTU21D;70668;48.81286795;9.14184224;2024-01-15T00:57:32;-1.43;88.46
216;HTU21D;70668;48.81286795;9.14184224;2024-01-15T01:00:01;-1.48;88.73
216;HTU21D;70668;48.81286795;9.14184224;2024-01-15T01:02:29;-1.42;88.38
216;HTU21D;70668;48.81286795;9.14184224;2024-01-15T01:04:58;-1.45;89.21
216;HTU21D;70668;48.81286795;9.14184224;2024-01-15T01:07:29;-1.24;88.22
216;HTU21D;70668;48.81286795;9.14184224;2024-01-15T01:09:57;-1.45;89.01
216;HTU21D;70668;48.81286795;9.14184224;2024-01-15T01:12:26;-1.24;88.57
216;HTU21D;70668;48.81286795;9.14184224;2024-01-15T01:14:55;-1.28;88.83
216;HTU21D;70668;48.81286795;9.14184224;2024-01-15T01:17:25;-1.12;88.47
216;HTU21D;70668;48.81286795;9.14184224;2024-01-15T01:19:53;-1.26;88.98
216;HTU21D;70668;48.81286795;9.14184224;2024-01-15T01:22:22;-1.29;89.50
216;HTU21D;70668;48.81286795;9.14184224;2024-01-15T01:24:53;-1.14;89.03
216;HTU21D;70668;48.81286795;9.14184224;2024-01-15T01:27:21;-1.06;89.32
216;HTU21D;70668;48.81286795;9.14184224;2024-01-15T01:29:50;-1.08;89.10
216;HTU21D;70668;48.81286795;9.14184224;2024-01-15T01:32:18;-1.09;89.16
216;HTU21D;70668;48.81286795;9.14184224;2024-01-15T01:34:47;-0.94;88.62
216;HTU21D;70668;48.81286795;9.14184224;2024-01-15T01:37:15;-0.89;89.27
216;HTU21D;70668;48.81286795;9.14184224;2024-01-15T01:39:44;-0.76;88.25
216;HTU21D;70668;48.81286795;9.14184224;2024-01-15T01:42:15;-0.82;88.38
216;HTU21D;70668;48.81286795;9.14184224;2024-01-15T01:44:43;-0.83;88.44
216;HTU21D;70668;48.81286795;9.14184224;2024-01-15T01:47:12;-0.81;88.95
216;HTU21D;70668;48.81286795;9.14184224;2024-01-15T01:49:41;-0.70;88.25
216;HTU21D;70668;48.81286795;9.14184224;2024-01-15T01:52:10;-0.62;88.72
216;HTU21D;70668;48.81286795;9.14184224;2024-01-15T01:54:40;-0.59;88.18
216;HTU21D;70668;48.81286795;9.14184224;2024-01-15T01:57:09;-0.67;88.52
216;HTU21D;70668;48.81286795;9.14184224;2024-01-15T01:59:40;-0.68;88.57
216;HTU21D;70668;48.81286795;9.14184224;2024-01-15T02:02:09;-0.64;88.60
216;HTU21D;70668;48.81286795;9.14184224;2024-01-15T02:04:38;-0.62;87.99
216;HTU21D;70668;48.81286795;9.14184224;2024-01-15T02:07:06;-0.73;88.79
216;HTU21D;70668;48.81286795;9.14184224;2024-01-15T02:09:32;-0.80;88.76
216;HTU21D;70668;48.81286795;9.14184224;2024-01-15T02:12:01;-0.79;88.54
216;HTU21D;70668;48.81286795;9.14184224;2024-01-15T02:14:29;-0.82;88.80
216;HTU21D;70668;48.81286795;9.14184224;2024-01-15T02:17:00;-0.81;88.62
216;HTU21D;70668;48.81286795;9.14184224;2024-01-15T02:19:29;-0.82;88.88
216;HTU21D;70668;48.81286795;9.14184224;2024-01-15T02:21:57;-0.76;88.34
216;HTU21D;70668;48.81286795;9.14184224;2024-01-15T02:24:28;-0.75;87.95
216;HTU21D;70668;48.81286795;9.14184224;2024-01-15T02:26:57;-0.79;88.65
216;HTU21D;70668;48.81286795;9.14184224;2024-01-15T02:29:25;-0.77;88.17
216;HTU21D;70668;48.81286795;9.14184224;2024-01-15T02:31:54;-0.85;88.47
216;HTU21D;70668;48.81286795;9.14184224;2024-01-15T02:34:23;-0.79;88.57
216;HTU21D;70668;48.81286795;9.14184224;2024-01-15T02:36:51;-0.93;89.46
216;HTU21D;70668;48.81286795;9.14184224;2024-01-15T02:39:20;-0.95;89.30
216;HTU21D;70668;48.81286795;9.14184224;2024-01-15T02:41:51;-1.10;89.99
216;HTU21D;70668;48.81286795;9.14184224;2024-01-15T02:44:21;-1.09;89.57
216;HTU21D;70668;48.81286795;9.14184224;2024-01-15T02:46:50;-1.12;89.96
216;HTU21D;70668;48.81286795;9.14184224;2024-01-15T02:49:18;-1.25;90.34
216;HTU21D;70668;48.81286795;9.14184224;2024-01-15T02:51:47;-1.18;90.15
216;HTU21D;70668;48.81286795;9.14184224;2024-01-15T02:54:15;-1.27;89.99
216;HTU21D;70668;48.81286795;9.14184224;2024-01-15T02:56:44;-1.06;89.63
216;HTU21D;70668;48.81286795;9.14184224;2024-01-15T02:59:15;-1.13;90.12
216;HTU21D;70668;48.81286795;9.14184224;2024-01-15T03:01:43;-1.19;90.12
216;HTU21D;70668;48.81286795;9.14184224;2024-01-15T03:04:12;-1.33;90.58
216;HTU21D;70668;48.81286795;9.14184224;2024-01-15T03:06:40;-1.36;90.71
216;HTU21D;70668;48.81286795;9.14184224;2024-01-15T03:09:09;-1.31;91.01
216;HTU21D;70668;48.81286795;9.14184224;2024-01-15T03:11:37;-1.55;91.65
216;HTU21D;70668;48.81286795;9.14184224;2024-01-15T03:14:06;-1.63;91.32
216;HTU21D;70668;48.81286795;9.14184224;2024-01-15T03:16:37;-1.45;91.07
216;HTU21D;70668;48.81286795;9.14184224;2024-01-15T03:19:05;-1.44;91.33
216;HTU21D;70668;48.81286795;9.14184224;2024-01-15T03:21:34;-1.54;91.51
216;HTU21D;70668;48.81286795;9.14184224;2024-01-15T03:24:03;-1.31;91.33
216;HTU21D;70668;48.81286795;9.14184224;2024-01-15T03:26:32;-1.25;90.34
216;HTU21D;70668;48.81286795;9.14184224;2024-01-15T03:29:00;-1.28;90.37
216;HTU21D;70668;48.81286795;9.14184224;2024-01-15T03:31:28;-1.38;89.99
216;HTU21D;70668;48.81286795;9.14184224;2024-01-15T03:34:00;-1.09;89.53
216;HTU21D;70668;48.81286795;9.14184224;2024-01-15T03:36:28;-1.20;90.12
216;HTU21D;70668;48.81286795;9.14184224;2024-01-15T03:38:57;-1.38;90.68
216;HTU21D;70668;48.81286795;9.14184224;2024-01-15T03:41:25;-1.26;91.16
216;HTU21D;70668;48.81286795;9.14184224;2024-01-15T03:43:54;-0.83;89.15
216;HTU21D;70668;48.81286795;9.14184224;2024-01-15T03:46:24;-1.20;91.24
216;HTU21D;70668;48.81286795;9.14184224;2024-01-15T03:48:52;-1.05;90.77
216;HTU21D;70668;48.81286795;9.14184224;2024-01-15T03:51:24;-0.90;90.18
216;HTU21D;70668;48.81286795;9.14184224;2024-01-15T03:53:53;-0.90;90.35
216;HTU21D;70668;48.81286795;9.14184224;2024-01-15T03:56:21;-0.73;89.43
216;HTU21D;70668;48.81286795;9.14184224;2024-01-15T03:58:50;-0.79;89.55
216;HTU21D;70668;48.81286795;9.14184224;2024-01-15T04:01:18;-0.67;88.80
216;HTU21D;70668;48.81286795;9.14184224;2024-01-15T04:03:46;-0.47;88.08
216;HTU21D;70668;48.81286795;9.14184224;2024-01-15T04:06:15;-0.46;88.57
216;HTU21D;70668;48.81286795;9.14184224;2024-01-15T04:08:46;-0.38;87.67
216;HTU21D;70668;48.81286795;9.14184224;2024-01-15T04:11:14;-0.36;87.08
216;HTU21D;70668;48.81286795;9.14184224;2024-01-15T04:13:43;-0.36;87.30
216;HTU21D;70668;48.81286795;9.14184224;2024-01-15T04:16:11;-0.35;87.11
216;HTU21D;70668;48.81286795;9.14184224;2024-01-15T04:18:40;-0.21;86.34
216;HTU21D;70668;48.81286795;9.14184224;2024-01-15T04:21:08;-0.20;86.63
216;HTU21D;70668;48.81286795;9.14184224;2024-01-15T04:23:37;-0.26;86.79
216;HTU21D;70668;48.81286795;9.14184224;2024-01-15T04:26:09;-0.16;86.61
216;HTU21D;70668;48.81286795;9.14184224;2024-01-15T04:28:38;-0.15;85.95
216;HTU21D;70668;48.81286795;9.14184224;2024-01-15T04:31:07;-0.20;86.66
216;HTU21D;70668;48.81286795;9.14184224;2024-01-15T04:33:35;-0.19;86.65
216;HTU21D;70668;48.81286795;9.14184224;2024-01-15T04:36:04;-0.01;85.77
216;HTU21D;70668;48.81286795;9.14184224;2024-01-15T04:38:33;-0.02;85.61
216;HTU21D;70668;48.81286795;9.14184224;2024-01-15T04:41:02;-0.09;85.97
216;HTU21D;70668;48.81286795;9.14184224;2024-01-15T04:43:33;-0.02;85.83
216;HTU21D;70668;48.81286795;9.14184224;2024-01-15T04:46:02;-0.08;86.09
216;HTU21D;70668;48.81286795;9.14184224;2024-01-15T04:48:30;0.03;85.86
216;HTU21D;70668;48.81286795;9.14184224;2024-01-15T04:50:59;0.05;86.14
216;HTU21D;70668;48.81286795;9.14184224;2024-01-15T04:53:27;-0.03;85.51
216;HTU21D;70668;48.81286795;9.14184224;2024-01-15T04:55:56;0.03;85.00
216;HTU21D;70668;48.81286795;9.14184224;2024-01-15T04:58:24;0.04;85.26
216;HTU21D;70668;48.81286795;9.14184224;2024-01-15T05:00:55;0.08;85.77
216;HTU21D;70668;48.81286795;9.14184224;2024-01-15T05:03:24;0.18;85.03
216;HTU21D;70668;48.81286795;9.14184224;2024-01-15T05:05:52;0.12;85.39
216;HTU21D;70668;48.81286795;9.14184224;2024-01-15T05:08:21;0.10;85.05
216;HTU21D;70668;48.81286795;9.14184224;2024-01-15T05:10:49;0.13;85.22
216;HTU21D;70668;48.81286795;9.14184224;2024-01-15T05:13:18;0.01;86.06
216;HTU21D;70668;48.81286795;9.14184224;2024-01-15T05:15:46;0.22;84.95
216;HTU21D;70668;48.81286795;9.14184224;2024-01-15T05:18:18;0.21;84.89
216;HTU21D;70668;48.81286795;9.14184224;2024-01-15T05:20:46;0.19;85.03
216;HTU21D;70668;48.81286795;9.14184224;2024-01-15T05:23:15;0.21;84.17
216;HTU21D;70668;48.81286795;9.14184224;2024-01-15T05:25:43;0.25;85.02
216;HTU21D;70668;48.81286795;9.14184224;2024-01-15T05:28:12;0.19;85.10
216;HTU21D;70668;48.81286795;9.14184224;2024-01-15T05:30:40;0.08;85.73
216;HTU21D;70668;48.81286795;9.14184224;2024-01-15T05:33:09;0.19;85.42
216;HTU21D;70668;48.81286795;9.14184224;2024-01-15T05:35:40;0.19;85.71
216;HTU21D;70668;48.81286795;9.14184224;2024-01-15T05:38:08;0.22;84.61
216;HTU21D;70668;48.81286795;9.14184224;2024-01-15T05:40:37;0.18;85.04
216;HTU21D;70668;48.81286795;9.14184224;2024-01-15T05:43:05;0.22;84.51
216;HTU21D;70668;48.81286795;9.14184224;2024-01-15T05:45:34;0.22;84.44
216;HTU21D;70668;48.81286795;9.14184224;2024-01-15T05:48:03;0.21;84.99
216;HTU21D;70668;48.81286795;9.14184224;2024-01-15T05:50:32;0.35;84.14
216;HTU21D;70668;48.81286795;9.14184224;2024-01-15T05:53:03;0.19;84.79
216;HTU21D;70668;48.81286795;9.14184224;2024-01-15T05:55:32;0.24;84.45
216;HTU21D;70668;48.81286795;9.14184224;2024-01-15T05:58:00;0.31;84.43
216;HTU21D;70668;48.81286795;9.14184224;2024-01-15T06:00:29;0.30;84.35
216;HTU21D;70668;48.81286795;9.14184224;2024-01-15T06:02:58;0.46;84.29
216;HTU21D;70668;48.81286795;9.14184224;2024-01-15T06:05:27;0.31;84.77
216;HTU21D;70668;48.81286795;9.14184224;2024-01-15T06:07:55;0.18;85.22
216;HTU21D;70668;48.81286795;9.14184224;2024-01-15T06:10:26;0.38;84.35
216;HTU21D;70668;48.81286795;9.14184224;2024-01-15T06:12:56;0.25;84.43
216;HTU21D;70668;48.81286795;9.14184224;2024-01-15T06:15:24;0.21;84.52
216;HTU21D;70668;48.81286795;9.14184224;2024-01-15T06:17:52;0.23;84.83
216;HTU21D;70668;48.81286795;9.14184224;2024-01-15T06:20:21;0.16;84.87
216;HTU21D;70668;48.81286795;9.14184224;2024-01-15T06:22:49;0.27;85.45
216;HTU21D;70668;48.81286795;9.14184224;2024-01-15T06:25:18;0.17;85.45
216;HTU21D;70668;48.81286795;9.14184224;2024-01-15T06:27:49;0.13;85.29
216;HTU21D;70668;48.81286795;9.14184224;2024-01-15T06:30:18;0.21;85.44
216;HTU21D;70668;48.81286795;9.14184224;2024-01-15T06:32:46;0.22;85.44
216;HTU21D;70668;48.81286795;9.14184224;2024-01-15T06:35:17;0.14;85.68
216;HTU21D;70668;48.81286795;9.14184224;2024-01-15T06:37:45;0.20;85.65
216;HTU21D;70668;48.81286795;9.14184224;2024-01-15T06:40:14;0.14;85.69
216;HTU21D;70668;48.81286795;9.14184224;2024-01-15T06:42:42;0.09;85.84
216;HTU21D;70668;48.81286795;9.14184224;2024-01-15T06:45:14;0.04;85.94
216;HTU21D;70668;48.81286795;9.14184224;2024-01-15T06:47:42;0.12;85.10
216;HTU21D;70668;48.81286795;9.14184224;2024-01-15T06:50:10;0.16;85.35
216;HTU21D;70668;48.81286795;9.14184224;2024-01-15T06:52:39;0.22;85.18
216;HTU21D;70668;48.81286795;9.14184224;2024-01-15T06:55:07;0.28;84.52
216;HTU21D;70668;48.81286795;9.14184224;2024-01-15T06:57:36;0.16;85.02
216;HTU21D;70668;48.81286795;9.14184224;2024-01-15T07:00:06;0.27;84.00
216;HTU21D;70668;48.81286795;9.14184224;2024-01-15T07:02:38;0.12;85.28
216;HTU21D;70668;48.81286795;9.14184224;2024-01-15T07:05:07;0.20;85.37
216;HTU21D;70668;48.81286795;9.14184224;2024-01-15T07:07:36;0.23;84.38
216;HTU21D;70668;48.81286795;9.14184224;2024-01-15T07:10:06;0.34;83.78
216;HTU21D;70668;48.81286795;9.14184224;2024-01-15T07:12:35;0.30;84.36
216;HTU21D;70668;48.81286795;9.14184224;2024-01-15T07:15:04;0.27;84.19
216;HTU21D;70668;48.81286795;9.14184224;2024-01-15T07:17:33;0.22;84.09
216;HTU21D;70668;48.81286795;9.14184224;2024-01-15T07:20:09;0.19;84.17
216;HTU21D;70668;48.81286795;9.14184224;2024-01-15T07:22:37;0.35;83.85
216;HTU21D;70668;48.81286795;9.14184224;2024-01-15T07:25:09;0.37;83.67
216;HTU21D;70668;48.81286795;9.14184224;2024-01-15T07:27:38;0.31;84.26
216;HTU21D;70668;48.81286795;9.14184224;2024-01-15T07:30:10;0.29;84.15
216;HTU21D;70668;48.81286795;9.14184224;2024-01-15T07:32:39;0.39;84.13
216;HTU21D;70668;48.81286795;9.14184224;2024-01-15T07:35:10;0.43;84.64
216;HTU21D;70668;48.81286795;9.14184224;2024-01-15T07:37:39;0.58;83.74
216;HTU21D;70668;48.81286795;9.14184224;2024-01-15T07:40:09;0.30;84.32
216;HTU21D;70668;48.81286795;9.14184224;2024-01-15T07:42:37;0.40;84.14
216;HTU21D;70668;48.81286795;9.14184224;2024-01-15T07:45:08;0.33;84.37
216;HTU21D;70668;48.81286795;9.14184224;2024-01-15T07:47:37;0.27;84.26
216;HTU21D;70668;48.81286795;9.14184224;2024-01-15T07:50:06;0.24;84.72
216;HTU21D;70668;48.81286795;9.14184224;2024-01-15T07:52:37;0.29;85.09
216;HTU21D;70668;48.81286795;9.14184224;2024-01-15T07:55:06;0.38;83.87
216;HTU21D;70668;48.81286795;9.14184224;2024-01-15T07:57:34;0.51;82.94
216;HTU21D;70668;48.81286795;9.14184224;2024-01-15T08:00:04;0.27;84.25
216;HTU21D;70668;48.81286795;9.14184224;2024-01-15T08:02:34;0.38;83.95
216;HTU21D;70668;48.81286795;9.14184224;2024-01-15T08:05:03;0.36;84.49
216;HTU21D;70668;48.81286795;9.14184224;2024-01-15T08:07:32;0.47;84.20
216;HTU21D;70668;48.81286795;9.14184224;2024-01-15T08:10:03;0.38;83.63
216;HTU21D;70668;48.81286795;9.14184224;2024-01-15T08:12:31;0.35;83.74
216;HTU21D;70668;48.81286795;9.14184224;2024-01-15T08:15:00;0.32;84.47
216;HTU21D;70668;48.81286795;9.14184224;2024-01-15T08:17:30;0.47;83.79
216;HTU21D;70668;48.81286795;9.14184224;2024-01-15T08:19:59;0.54;83.61
216;HTU21D;70668;48.81286795;9.14184224;2024-01-15T08:22:28;0.45;83.74
216;HTU21D;70668;48.81286795;9.14184224;2024-01-15T08:24:57;0.46;83.58
216;HTU21D;70668;48.81286795;9.14184224;2024-01-15T08:27:29;0.54;83.44
216;HTU21D;70668;48.81286795;9.14184224;2024-01-15T08:29:57;0.55;82.44
216;HTU21D;70668;48.81286795;9.14184224;2024-01-15T08:32:26;0.60;82.06
216;HTU21D;70668;48.81286795;9.14184224;2024-01-15T08:34:55;0.58;80.88
216;HTU21D;70668;48.81286795;9.14184224;2024-01-15T08:37:23;0.68;81.62
216;HTU21D;70668;48.81286795;9.14184224;2024-01-15T08:39:52;0.62;80.63
216;HTU21D;70668;48.81286795;9.14184224;2024-01-15T08:42:20;0.63;79.98
216;HTU21D;70668;48.81286795;9.14184224;2024-01-15T08:44:51;0.73;78.65
216;HTU21D;70668;48.81286795;9.14184224;2024-01-15T08:47:20;0.67;78.71
216;HTU21D;70668;48.81286795;9.14184224;2024-01-15T08:49:48;0.67;79.57
216;HTU21D;70668;48.81286795;9.14184224;2024-01-15T08:52:17;0.82;77.96
216;HTU21D;70668;48.81286795;9.14184224;2024-01-15T08:54:45;0.88;77.84
216;HTU21D;70668;48.81286795;9.14184224;2024-01-15T08:57:14;0.86;77.60
216;HTU21D;70668;48.81286795;9.14184224;2024-01-15T08:59:42;0.80;79.08
216;HTU21D;70668;48.81286795;9.14184224;2024-01-15T09:02:14;0.94;76.75
216;HTU21D;70668;48.81286795;9.14184224;2024-01-15T09:04:42;1.08;76.73
216;HTU21D;70668;48.81286795;9.14184224;2024-01-15T09:07:11;0.99;76.64
216;HTU21D;70668;48.81286795;9.14184224;2024-01-15T09:09:40;1.08;76.98
216;HTU21D;70668;48.81286795;9.14184224;2024-01-15T09:12:08;0.88;76.85
216;HTU21D;70668;48.81286795;9.14184224;2024-01-15T09:14:41;0.99;76.93
216;HTU21D;70668;48.81286795;9.14184224;2024-01-15T09:17:09;1.05;77.86
216;HTU21D;70668;48.81286795;9.14184224;2024-01-15T09:19:40;0.95;78.20
216;HTU21D;70668;48.81286795;9.14184224;2024-01-15T09:22:09;1.03;79.05
216;HTU21D;70668;48.81286795;9.14184224;2024-01-15T09:24:40;1.06;77.85
216;HTU21D;70668;48.81286795;9.14184224;2024-01-15T09:27:08;1.07;77.62
216;HTU21D;70668;48.81286795;9.14184224;2024-01-15T09:29:37;1.12;78.05
216;HTU21D;70668;48.81286795;9.14184224;2024-01-15T09:32:07;1.16;76.07
216;HTU21D;70668;48.81286795;9.14184224;2024-01-15T09:34:36;1.11;76.50
216;HTU21D;70668;48.81286795;9.14184224;2024-01-15T09:37:07;1.14;76.41
216;HTU21D;70668;48.81286795;9.14184224;2024-01-15T09:39:35;1.27;75.12
216;HTU21D;70668;48.81286795;9.14184224;2024-01-15T09:42:05;1.31;75.62
216;HTU21D;70668;48.81286795;9.14184224;2024-01-15T09:44:34;1.43;75.03
216;HTU21D;70668;48.81286795;9.14184224;2024-01-15T09:47:04;1.37;74.63
216;HTU21D;70668;48.81286795;9.14184224;2024-01-15T09:49:33;1.33;76.15
216;HTU21D;70668;48.81286795;9.14184224;2024-01-15T09:52:07;1.54;75.02
216;HTU21D;70668;48.81286795;9.14184224;2024-01-15T09:54:36;1.58;74.38
216;HTU21D;70668;48.81286795;9.14184224;2024-01-15T09:57:05;1.54;74.45
216;HTU21D;70668;48.81286795;9.14184224;2024-01-15T09:59:35;1.57;74.51
216;HTU21D;70668;48.81286795;9.14184224;2024-01-15T10:02:05;1.41;75.73
216;HTU21D;70668;48.81286795;9.14184224;2024-01-15T10:04:34;1.40;75.72
216;HTU21D;70668;48.81286795;9.14184224;2024-01-15T10:07:07;1.57;74.80
216;HTU21D;70668;48.81286795;9.14184224;2024-01-15T10:09:36;1.56;74.53
216;HTU21D;70668;48.81286795;9.14184224;2024-01-15T10:12:05;1.48;75.08
216;HTU21D;70668;48.81286795;9.14184224;2024-01-15T10:14:34;1.46;74.92
216;HTU21D;70668;48.81286795;9.14184224;2024-01-15T10:17:12;1.60;75.07
216;HTU21D;70668;48.81286795;9.14184224;2024-01-15T10:22:25;1.57;75.18
216;HTU21D;70668;48.81286795;9.14184224;2024-01-15T10:24:54;1.65;74.18
216;HTU21D;70668;48.81286795;9.14184224;2024-01-15T10:27:22;1.45;75.13
216;HTU21D;70668;48.81286795;9.14184224;2024-01-15T10:29:51;1.48;75.09
216;HTU21D;70668;48.81286795;9.14184224;2024-01-15T10:32:19;1.58;75.56
216;HTU21D;70668;48.81286795;9.14184224;2024-01-15T10:34:52;1.48;75.97
216;HTU21D;70668;48.81286795;9.14184224;2024-01-15T10:37:20;1.55;74.80
216;HTU21D;70668;48.81286795;9.14184224;2024-01-15T10:39:52;1.61;75.52
216;HTU21D;70668;48.81286795;9.14184224;2024-01-15T10:42:20;1.68;74.12
216;HTU21D;70668;48.81286795;9.14184224;2024-01-15T10:44:49;1.49;75.67
216;HTU21D;70668;48.81286795;9.14184224;2024-01-15T10:47:17;1.61;76.25
216;HTU21D;70668;48.81286795;9.14184224;2024-01-15T10:49:47;1.68;76.02
216;HTU21D;70668;48.81286795;9.14184224;2024-01-15T10:52:15;1.68;75.99
216;HTU21D;70668;48.81286795;9.14184224;2024-01-15T10:54:44;1.78;76.20
216;HTU21D;70668;48.81286795;9.14184224;2024-01-15T10:57:16;1.78;75.48
216;HTU21D;70668;48.81286795;9.14184224;2024-01-15T10:59:45;1.60;76.25
216;HTU21D;70668;48.81286795;9.14184224;2024-01-15T11:02:14;1.68;77.51
216;HTU21D;70668;48.81286795;9.14184224;2024-01-15T11:04:43;1.69;78.57
216;HTU21D;70668;48.81286795;9.14184224;2024-01-15T11:07:13;1.84;78.56
216;HTU21D;70668;48.81286795;9.14184224;2024-01-15T11:09:42;1.65;79.75
216;HTU21D;70668;48.81286795;9.14184224;2024-01-15T11:12:13;1.77;80.85
216;HTU21D;70668;48.81286795;9.14184224;2024-01-15T11:14:48;1.67;83.74
216;HTU21D;70668;48.81286795;9.14184224;2024-01-15T11:17:18;1.41;84.83
216;HTU21D;70668;48.81286795;9.14184224;2024-01-15T11:19:47;1.27;86.03
216;HTU21D;70668;48.81286795;9.14184224;2024-01-15T11:25:17;1.08;93.16
216;HTU21D;70668;48.81286795;9.14184224;2024-01-15T11:27:47;1.28;93.37
216;HTU21D;70668;48.81286795;9.14184224;2024-01-15T11:30:19;1.16;91.50
216;HTU21D;70668;48.81286795;9.14184224;2024-01-15T11:32:48;1.13;90.69
216;HTU21D;70668;48.81286795;9.14184224;2024-01-15T11:35:16;1.13;91.62
216;HTU21D;70668;48.81286795;9.14184224;2024-01-15T11:37:57;1.13;94.03
216;HTU21D;70668;48.81286795;9.14184224;2024-01-15T11:40:37;1.08;94.16
216;HTU21D;70668;48.81286795;9.14184224;2024-01-15T11:43:08;1.17;91.22
216;HTU21D;70668;48.81286795;9.14184224;2024-01-15T11:45:41;1.13;91.30
216;HTU21D;70668;48.81286795;9.14184224;2024-01-15T11:48:11;1.07;91.15
216;HTU21D;70668;48.81286795;9.14184224;2024-01-15T11:50:41;0.95;91.74
216;HTU21D;70668;48.81286795;9.14184224;2024-01-15T11:53:16;0.95;92.78
216;HTU21D;70668;48.81286795;9.14184224;2024-01-15T11:55:46;1.04;92.74
216;HTU21D;70668;48.81286795;9.14184224;2024-01-15T11:58:14;1.10;94.29
216;HTU21D;70668;48.81286795;9.14184224;2024-01-15T12:00:47;1.03;94.36
216;HTU21D;70668;48.81286795;9.14184224;2024-01-15T12:03:17;1.03;94.27
216;HTU21D;70668;48.81286795;9.14184224;2024-01-15T12:05:45;0.98;95.91
216;HTU21D;70668;48.81286795;9.14184224;2024-01-15T12:08:14;1.07;95.06
216;HTU21D;70668;48.81286795;9.14184224;2024-01-15T12:10:42;1.04;94.01
216;HTU21D;70668;48.81286795;9.14184224;2024-01-15T12:13:12;1.33;93.66
216;HTU21D;70668;48.81286795;9.14184224;2024-01-15T12:15:42;1.17;92.45
216;HTU21D;70668;48.81286795;9.14184224;2024-01-15T12:18:14;1.12;94.01
216;HTU21D;70668;48.81286795;9.14184224;2024-01-15T12:20:44;1.11;95.36
216;HTU21D;70668;48.81286795;9.14184224;2024-01-15T12:23:14;1.01;95.27
216;HTU21D;70668;48.81286795;9.14184224;2024-01-15T12:25:43;0.97;95.12
216;HTU21D;70668;48.81286795;9.14184224;2024-01-15T12:28:12;1.01;95.00
216;HTU21D;70668;48.81286795;9.14184224;2024-01-15T12:30:41;0.86;95.46
216;HTU21D;70668;48.81286795;9.14184224;2024-01-15T12:33:12;0.92;96.16
216;HTU21D;70668;48.81286795;9.14184224;2024-01-15T12:35:41;0.91;97.06
216;HTU21D;70668;48.81286795;9.14184224;2024-01-15T12:38:10;0.90;96.40
216;HTU21D;70668;48.81286795;9.14184224;2024-01-15T12:40:39;1.02;96.57
216;HTU21D;70668;48.81286795;9.14184224;2024-01-15T12:43:08;1.01;97.55
216;HTU21D;70668;48.81286795;9.14184224;2024-01-15T12:45:36;1.08;97.73
216;HTU21D;70668;48.81286795;9.14184224;2024-01-15T12:48:05;0.88;99.24
216;HTU21D;70668;48.81286795;9.14184224;2024-01-15T12:50:36;0.64;100.45
216;HTU21D;70668;48.81286795;9.14184224;2024-01-15T12:53:05;0.75;101.31
216;HTU21D;70668;48.81286795;9.14184224;2024-01-15T12:55:33;0.81;100.80
216;HTU21D;70668;48.81286795;9.14184224;2024-01-15T12:58:02;0.64;101.73
216;HTU21D;70668;48.81286795;9.14184224;2024-01-15T13:00:31;0.78;101.18
216;HTU21D;70668;48.81286795;9.14184224;2024-01-15T13:03:00;0.94;100.51
216;HTU21D;70668;48.81286795;9.14184224;2024-01-15T13:05:29;0.87;100.51
216;HTU21D;70668;48.81286795;9.14184224;2024-01-15T13:08:02;1.02;100.19
216;HTU21D;70668;48.81286795;9.14184224;2024-01-15T13:10:31;1.07;99.52
216;HTU21D;70668;48.81286795;9.14184224;2024-01-15T13:13:00;1.06;99.84
216;HTU21D;70668;48.81286795;9.14184224;2024-01-15T13:15:28;1.03;100.21
216;HTU21D;70668;48.81286795;9.14184224;2024-01-15T13:17:57;0.96;100.21
216;HTU21D;70668;48.81286795;9.14184224;2024-01-15T13:20:25;0.90;101.62
216;HTU21D;70668;48.81286795;9.14184224;2024-01-15T13:22:54;1.03;100.02
216;HTU21D;70668;48.81286795;9.14184224;2024-01-15T13:25:25;1.05;99.64
216;HTU21D;70668;48.81286795;9.14184224;2024-01-15T13:27:53;1.17;100.01
216;HTU21D;70668;48.81286795;9.14184224;2024-01-15T13:30:22;1.09;99.53
216;HTU21D;70668;48.81286795;9.14184224;2024-01-15T13:32:50;1.24;99.17
216;HTU21D;70668;48.81286795;9.14184224;2024-01-15T13:35:19;0.73;100.94
216;HTU21D;70668;48.81286795;9.14184224;2024-01-15T13:37:48;0.88;100.84
216;HTU21D;70668;48.81286795;9.14184224;2024-01-15T13:40:16;0.91;101.22
216;HTU21D;70668;48.81286795;9.14184224;2024-01-15T13:42:48;0.83;101.62
216;HTU21D;70668;48.81286795;9.14184224;2024-01-15T13:45:18;0.69;102.09
216;HTU21D;70668;48.81286795;9.14184224;2024-01-15T13:47:46;0.76;101.46
216;HTU21D;70668;48.81286795;9.14184224;2024-01-15T13:50:15;0.87;102.15
216;HTU21D;70668;48.81286795;9.14184224;2024-01-15T13:52:44;0.94;102.14
216;HTU21D;70668;48.81286795;9.14184224;2024-01-15T13:55:13;0.89;101.64
216;HTU21D;70668;48.81286795;9.14184224;2024-01-15T13:57:41;0.92;101.31